Details From KHWD - Hayward Executive
To KLKV - Lake Co
Flight Number -
Tags generated
Created
Modified
Stats Distance 324 nm / 600 km
Max Altitude 0 ft / 0 m
Waypoints 6
Social Downloads 13
Likes 0
Share

Download

Looking for another format? Having issues loading an existing format? Contact us
Advertisement - Login to hide

Notes

None

Route

KHWD COLOM J32 FMG J5 HARTT KLKV

ID Type Via Altitude (ft/m) Position (lat/lon) Dist (leg/tot) Name
O KHWD APT - 0 / 0 37.65925 / -122.12193 - / 0 nm Hayward Executive
COLOM FIX - 0 / 0 38.83897 / -120.87002 92 / 92 nm
FMG VOR J32 (AWY-HI) 0 / 0 39.53128 / -119.65608 70 / 162 nm MUSTANG VORTAC
PYRAM FIX J5 (AWY-HI) 0 / 0 39.89328 / -119.75600 22 / 184 nm
HARTT FIX J5 (AWY-HI) 0 / 0 40.83587 / -120.02125 57 / 242 nm
O KLKV APT - 0 / 0 42.16110 / -120.39908 81 / 323 nm Lake Co

Altitude Profile

Advertisement - Login to hide

Weather


0- 5 10 15 20 25 30 35+ Temperature / °C

Clouds and Precipitation
Forecast for 2022-08-08 06:00 UTC. Updated 3 hours ago

Ground ~20,000 ft ~40,000 ft Winds

KHWD

Details ICAO KHWD (HWD)
Name Hayward Executive
Region United States
Timezone America/Los_Angeles (UTC-7.0)
Stats Elevation 52 ft / 16 m (AMSL)
Location 37.659300° -122.122000°
Runways 2
Magnetic Variation 12.984° E

METAR

KHWD 080554Z 28007KT 10SM CLR 18/14 A3003 RMK AO2 SLP177 T01780139 10217 20178 51011

Decode

TAF

Not found

Departure Runways

ID Width Length Bearing (true/mag) Surface Threshold Overrun Markings Lighting
10L 75 ft / 23 m 3,106 ft / 947 m 119.97° / 106.98° ASPHALT 0 ft / 0 m 0 ft / 0 m VISUAL EDGE THRESHOLD
10R 150 ft / 46 m 5,695 ft / 1,736 m 119.96° / 106.97° ASPHALT 827 ft / 252 m 0 ft / 0 m PREC-APP EDGE THRESHOLD REIL-OMNI
28L 150 ft / 46 m 5,695 ft / 1,736 m 299.97° / 286.98° ASPHALT 676 ft / 206 m 0 ft / 0 m PREC-APP EDGE THRESHOLD REIL-OMNI
28R 75 ft / 23 m 3,106 ft / 947 m 299.97° / 286.99° ASPHALT 0 ft / 0 m 0 ft / 0 m VISUAL EDGE THRESHOLD

KLKV

Details ICAO KLKV (LKV)
Name Lake County
Region United States
Timezone America/Los_Angeles (UTC-7.0)
Stats Elevation 4,734 ft / 1,443 m (AMSL)
Location 42.161100° -120.399000°
Runways 1
Magnetic Variation 13.579° E

METAR

KLKV 080553Z AUTO 31008KT 10SM CLR 18/08 A3017 RMK AO2 SLP167 T01830078 10339 20183 51015

Decode

TAF

Not found

Destination Runways

ID Width Length Bearing (true/mag) Surface Threshold Overrun Markings Lighting
17 100 ft / 30 m 5,325 ft / 1,623 m 180.25° / 166.67° ASPHALT 0 ft / 0 m 0 ft / 0 m APP EDGE THRESHOLD
35 100 ft / 30 m 5,325 ft / 1,623 m 0.25° / 346.67° ASPHALT 0 ft / 0 m 0 ft / 0 m APP EDGE THRESHOLD REIL-OMNI